Time;durP1;ratioP1;P1;durP2;ratioP2;P2;SDS_P1;SDS_P2;PMS_P1;PMS_P2;Temp;Humidity;BMP_temperature;BMP_pressure;BME280_temperature;BME280_humidity;BME280_pressure;Samples;Min_cycle;Max_cycle;Signal;HPM_P1;HPM_P2
2023/10/15 00:04:19;;;;;;;6.50;3.10;;;;;;;14.61;72.07;98648.25;234675;214;137928;-66
2023/10/15 00:09:22;;;;;;;6.10;3.00;;;;;;;14.63;72.25;98647.38;234701;215;146580;-64
2023/10/15 00:14:25;;;;;;;7.60;3.50;;;;;;;14.72;72.11;98657.32;234682;215;139167;-66
2023/10/15 00:19:32;;;;;;;8.50;3.50;;;;;;;14.75;72.12;98667.66;234744;214;138551;-65
2023/10/15 00:24:37;;;;;;;6.60;3.00;;;;;;;14.75;72.05;98671.60;234749;214;145653;-63
2023/10/15 00:29:41;;;;;;;7.40;3.50;;;;;;;14.74;72.08;98674.30;234633;215;139731;-63
2023/10/15 00:34:44;;;;;;;5.20;3.00;;;;;;;14.69;72.05;98663.66;234673;215;136554;-63
2023/10/15 00:39:47;;;;;;;7.40;3.30;;;;;;;14.65;72.17;98664.74;234678;215;145869;-66
2023/10/15 00:44:51;;;;;;;8.60;3.70;;;;;;;14.71;72.42;98665.48;234630;214;138639;-66
2023/10/15 00:49:55;;;;;;;8.90;3.60;;;;;;;14.74;72.32;98653.95;234659;215;137267;-65
2023/10/15 00:54:59;;;;;;;7.70;3.70;;;;;;;14.71;72.32;98652.40;234573;215;146663;-67
2023/10/15 01:00:08;;;;;;;8.60;3.80;;;;;;;14.71;72.33;98679.80;234580;215;140523;-61
2023/10/15 01:05:14;;;;;;;7.30;3.70;;;;;;;14.66;72.25;98690.15;234616;215;137893;-62
2023/10/15 01:10:28;;;;;;;;;;;;;;;14.57;72.36;98683.11;234752;214;146274;-62
2023/10/15 01:15:35;;;;;;;7.00;3.50;;;;;;;14.50;72.43;98673.98;234805;214;141193;-64
2023/10/15 01:20:42;;;;;;;9.10;3.80;;;;;;;14.51;72.35;98675.19;234609;214;137926;-66
2023/10/15 01:25:48;;;;;;;10.50;4.20;;;;;;;14.58;72.07;98661.36;234709;214;146894;-65
2023/10/15 01:30:52;;;;;;;8.50;3.60;;;;;;;14.54;71.91;98650.70;234726;214;139140;-66
2023/10/15 01:35:57;;;;;;;10.90;4.30;;;;;;;14.49;71.91;98638.41;234636;214;138982;-64
2023/10/15 01:41:04;;;;;;;8.60;4.20;;;;;;;14.42;72.01;98641.96;234581;214;147547;-65
2023/10/15 01:51:30;;;;;;;10.90;4.20;;;;;;;14.35;72.26;98641.81;234651;215;137256;-73
2023/10/15 01:56:36;;;;;;;10.50;3.90;;;;;;;14.38;72.42;98639.34;234658;214;148622;-68
2023/10/15 02:01:49;;;;;;;;;;;;;;;14.38;72.32;98647.29;234841;214;139282;-66
2023/10/15 02:06:53;;;;;;;12.20;4.20;;;;;;;14.42;72.31;98653.20;234714;214;131178;-72
2023/10/15 02:11:56;;;;;;;11.00;4.50;;;;;;;14.42;72.13;98659.08;234738;214;145857;-72
2023/10/15 02:17:00;;;;;;;10.40;4.10;;;;;;;14.43;71.48;98643.33;234719;214;138894;-74
2023/10/15 02:22:07;;;;;;;6.90;3.40;;;;;;;14.40;71.26;98638.73;234775;215;138602;-73
2023/10/15 02:27:11;;;;;;;11.30;3.50;;;;;;;14.37;71.34;98631.38;234708;214;147390;-68
2023/10/15 02:37:27;;;;;;;9.00;3.30;;;;;;;14.29;70.71;98635.94;234698;214;138675;-71
2023/10/15 02:42:30;;;;;;;12.70;3.80;;;;;;;14.31;70.51;98647.90;234604;214;145792;-69
2023/10/15 02:47:41;;;;;;;9.20;3.80;;;;;;;14.30;70.35;98644.64;234662;215;140294;-69
2023/10/15 02:52:45;;;;;;;9.10;3.50;;;;;;;14.24;70.45;98638.71;234585;215;137315;-69
2023/10/15 02:57:52;;;;;;;11.00;3.60;;;;;;;14.20;70.48;98630.98;234703;214;146402;-70
2023/10/15 03:02:56;;;;;;;9.70;3.70;;;;;;;14.11;70.62;98634.78;234583;215;141003;-68
2023/10/15 03:07:59;;;;;;;10.40;3.70;;;;;;;14.05;70.65;98612.85;234675;215;136964;-67
2023/10/15 03:13:03;;;;;;;11.90;3.60;;;;;;;13.98;70.67;98647.48;234689;214;147392;-66
2023/10/15 03:18:14;;;;;;;9.80;3.50;;;;;;;13.99;70.45;98676.98;234678;215;140067;-70
2023/10/15 03:23:17;;;;;;;8.40;3.10;;;;;;;14.01;69.80;98668.42;234703;215;138045;-65
2023/10/15 03:28:23;;;;;;;11.30;3.40;;;;;;;14.03;68.85;98682.93;234727;214;146275;-65
2023/10/15 03:33:30;;;;;;;10.20;3.20;;;;;;;13.98;67.69;98688.45;234701;214;138742;-69
2023/10/15 03:38:34;;;;;;;8.30;3.10;;;;;;;13.91;66.61;98693.32;234743;215;136901;-68
2023/10/15 03:43:39;;;;;;;12.00;3.80;;;;;;;13.83;65.87;98683.59;234738;214;145586;-69
2023/10/15 03:48:47;;;;;;;11.80;3.80;;;;;;;13.73;65.38;98706.36;234546;214;139566;-65
2023/10/15 03:53:51;;;;;;;9.20;3.30;;;;;;;13.67;64.93;98676.86;234733;215;137079;-64
2023/10/15 03:58:54;;;;;;;10.80;3.40;;;;;;;13.61;64.62;98671.67;234679;214;147789;-63
2023/10/15 04:04:02;;;;;;;12.90;3.20;;;;;;;13.56;64.26;98687.05;234635;214;139390;-69
2023/10/15 04:14:15;;;;;;;15.50;3.40;;;;;;;13.45;63.80;98678.81;234649;215;148214;-66
2023/10/15 04:19:18;;;;;;;12.30;3.50;;;;;;;13.36;63.65;98684.90;234657;215;138645;-67
2023/10/15 04:24:36;;;;;;;9.80;3.40;;;;;;;13.26;63.62;98692.27;234716;214;137020;-70
2023/10/15 04:29:47;;;;;;;11.10;3.00;;;;;;;13.16;63.52;98691.06;234694;214;147519;-71
2023/10/15 04:34:51;;;;;;;10.40;2.70;;;;;;;13.08;63.81;98716.61;234551;215;138648;-70
2023/10/15 04:39:55;;;;;;;10.00;3.00;;;;;;;13.04;64.00;98727.63;234597;215;137912;-69
2023/10/15 04:45:20;;;;;;;12.60;3.00;;;;;;;12.99;64.30;98738.52;234575;214;232193;-65
2023/10/15 04:50:28;;;;;;;10.80;2.60;;;;;;;12.94;64.09;98747.79;234659;215;140231;-65
2023/10/15 04:55:31;;;;;;;11.20;3.10;;;;;;;12.88;64.22;98753.77;234583;215;137754;-67
2023/10/15 05:00:35;;;;;;;8.50;2.60;;;;;;;12.83;64.49;98759.15;234780;214;147377;-64
2023/10/15 05:05:38;;;;;;;8.90;2.60;;;;;;;12.78;64.49;98770.36;234593;215;140566;-64
2023/10/15 05:10:50;;;;;;;8.50;2.30;;;;;;;12.74;63.90;98747.55;234604;215;137710;-69
2023/10/15 05:15:56;;;;;;;7.60;2.30;;;;;;;12.72;62.75;98751.80;234616;215;146868;-69
2023/10/15 05:21:03;;;;;;;11.00;2.30;;;;;;;12.69;61.92;98757.17;234679;215;139565;-63
2023/10/15 05:26:06;;;;;;;6.70;2.00;;;;;;;12.61;61.47;98761.88;234680;215;137559;-70
2023/10/15 05:31:11;;;;;;;12.40;6.20;;;;;;;12.54;61.17;98755.67;234770;214;147707;-66
2023/10/15 05:36:14;;;;;;;10.40;2.30;;;;;;;12.45;60.76;98749.91;234613;215;140560;-65
2023/10/15 05:41:19;;;;;;;8.90;1.90;;;;;;;12.34;60.86;98751.27;234742;214;137662;-65
2023/10/15 05:46:22;;;;;;;8.10;2.20;;;;;;;12.23;61.00;98752.41;234709;214;147487;-64
2023/10/15 05:51:27;;;;;;;7.20;2.10;;;;;;;12.15;61.16;98748.70;234666;214;138844;-64
2023/10/15 05:56:31;;;;;;;7.70;2.40;;;;;;;12.08;60.67;98755.14;234911;214;137934;-62
2023/10/15 06:01:34;;;;;;;6.90;1.80;;;;;;;11.95;60.76;98757.84;234886;214;147334;-65
2023/10/15 06:06:37;;;;;;;202.80;140.20;;;;;;;11.90;61.26;98768.90;234879;214;139197;-65
2023/10/15 06:11:40;;;;;;;15.80;6.90;;;;;;;11.79;60.99;98781.68;234698;214;137740;-65
2023/10/15 06:16:44;;;;;;;141.80;102.90;;;;;;;11.71;61.40;98784.61;234745;214;148144;-65
2023/10/15 06:21:48;;;;;;;12.40;4.50;;;;;;;11.70;61.60;98792.88;234856;214;138924;-65
2023/10/15 06:26:51;;;;;;;8.30;2.60;;;;;;;11.70;61.43;98797.48;234855;214;136789;-63
2023/10/15 06:31:55;;;;;;;10.20;2.60;;;;;;;11.73;61.35;98808.27;234746;214;147539;-62
2023/10/15 06:36:58;;;;;;;88.10;60.50;;;;;;;11.76;61.18;98815.90;234758;214;140478;-67
2023/10/15 06:42:02;;;;;;;18.90;12.30;;;;;;;11.81;60.94;98823.16;234883;214;137358;-63
2023/10/15 06:47:06;;;;;;;11.60;4.10;;;;;;;11.85;61.14;98822.57;234744;214;147347;-65
2023/10/15 06:52:09;;;;;;;7.40;2.30;;;;;;;11.81;60.43;98819.57;234801;214;139396;-63
2023/10/15 06:57:16;;;;;;;7.70;2.60;;;;;;;11.77;60.35;98822.71;234854;214;136940;-64
2023/10/15 07:02:19;;;;;;;8.30;2.20;;;;;;;11.79;60.18;98823.61;234784;214;147553;-63
2023/10/15 07:07:24;;;;;;;8.30;2.20;;;;;;;11.85;59.60;98830.92;234911;214;140525;-65
2023/10/15 07:12:27;;;;;;;8.20;2.20;;;;;;;11.83;59.32;98836.34;234870;214;137966;-63
2023/10/15 07:17:31;;;;;;;9.20;2.60;;;;;;;11.82;58.82;98840.13;234636;214;148365;-62
2023/10/15 07:22:34;;;;;;;10.60;2.30;;;;;;;11.85;58.43;98841.55;234679;214;138878;-63
2023/10/15 07:27:44;;;;;;;;;;;;;;;11.89;57.81;98845.37;234765;214;137077;-63
2023/10/15 07:32:53;;;;;;;8.70;2.00;;;;;;;11.93;57.55;98842.95;234885;214;149132;-62
2023/10/15 07:37:58;;;;;;;25.50;14.60;;;;;;;12.00;56.98;98843.75;234689;211;139921;-61
2023/10/15 07:43:02;;;;;;;14.90;3.30;;;;;;;12.05;56.41;98847.96;234798;214;137321;-62
2023/10/15 07:48:07;;;;;;;12.60;3.50;;;;;;;12.18;56.75;98849.03;234772;214;147611;-60
2023/10/15 07:53:11;;;;;;;14.10;3.70;;;;;;;12.25;56.16;98850.43;234815;214;138900;-61
2023/10/15 07:58:15;;;;;;;8.90;2.80;;;;;;;12.27;55.56;98847.25;234832;214;137034;-59
2023/10/15 08:03:19;;;;;;;10.50;3.10;;;;;;;12.28;54.38;98841.51;234819;214;148103;-60
2023/10/15 08:08:24;;;;;;;11.80;3.10;;;;;;;12.35;54.79;98829.27;234712;214;138806;-60
2023/10/15 08:13:27;;;;;;;7.50;2.50;;;;;;;12.42;54.10;98828.58;234780;214;138088;-60
2023/10/15 08:18:30;;;;;;;9.80;3.30;;;;;;;12.43;53.52;98824.41;234801;214;148925;-62
2023/10/15 08:23:33;;;;;;;9.00;2.50;;;;;;;12.49;53.05;98825.08;234760;214;140289;-61
2023/10/15 08:28:37;;;;;;;11.00;2.90;;;;;;;12.49;52.84;98827.54;234725;214;137213;-63
2023/10/15 08:33:41;;;;;;;8.20;2.70;;;;;;;12.54;52.33;98838.52;234764;214;147561;-61
2023/10/15 08:38:49;;;;;;;8.70;2.20;;;;;;;12.58;51.78;98838.64;234599;213;139451;-62
2023/10/15 08:43:53;;;;;;;10.20;2.50;;;;;;;12.58;50.56;98841.88;234791;214;140285;-65
2023/10/15 08:49:00;;;;;;;8.40;2.30;;;;;;;12.62;50.71;98831.55;234779;214;149026;-65
2023/10/15 08:54:04;;;;;;;6.20;2.20;;;;;;;12.73;50.48;98835.94;234751;214;142073;-64
2023/10/15 08:59:09;;;;;;;10.50;2.40;;;;;;;12.77;50.03;98835.59;234765;214;137720;-65
2023/10/15 09:04:12;;;;;;;55.90;39.30;;;;;;;12.83;49.79;98835.37;234767;214;148899;-61
2023/10/15 09:09:15;;;;;;;11.00;3.40;;;;;;;12.98;50.62;98833.83;234709;214;138668;-65
2023/10/15 09:14:36;;;;;;;5.50;2.20;;;;;;;13.15;49.94;98833.35;234838;214;138273;-69
2023/10/15 09:19:41;;;;;;;6.90;1.70;;;;;;;13.15;49.57;98828.88;234712;214;148443;-62
2023/10/15 09:24:45;;;;;;;7.90;2.00;;;;;;;13.15;49.15;98830.48;234695;214;138766;-65
2023/10/15 09:29:48;;;;;;;6.50;1.90;;;;;;;13.09;47.77;98830.89;234739;207;137631;-66
2023/10/15 09:34:53;;;;;;;5.40;2.20;;;;;;;13.06;46.68;98824.93;234628;212;148114;-64
2023/10/15 09:39:57;;;;;;;6.00;1.80;;;;;;;13.02;44.83;98815.92;234778;214;139662;-65
2023/10/15 09:45:03;;;;;;;4.60;1.50;;;;;;;13.00;44.94;98812.55;234720;214;137489;-67
2023/10/15 09:50:09;;;;;;;8.40;1.50;;;;;;;13.04;44.93;98812.23;234668;212;148782;-66
2023/10/15 09:55:13;;;;;;;57.30;44.00;;;;;;;13.02;45.14;98808.42;234733;214;139001;-62
2023/10/15 10:00:25;;;;;;;9.20;3.10;;;;;;;13.08;45.61;98806.11;234761;214;138843;-67
2023/10/15 10:05:44;;;;;;;8.40;2.00;;;;;;;13.08;45.71;98806.59;234733;214;148093;-70
2023/10/15 10:11:07;;;;;;;7.30;1.70;;;;;;;13.12;45.70;98798.42;234767;214;140611;-66
2023/10/15 10:16:23;;;;;;;6.30;1.60;;;;;;;13.11;45.43;98789.64;234762;214;136769;-71
2023/10/15 10:21:29;;;;;;;8.90;2.00;;;;;;;13.10;45.87;98786.64;234724;214;147393;-70
2023/10/15 10:26:32;;;;;;;62.40;44.30;;;;;;;13.05;45.81;98789.54;234723;214;141825;-69
2023/10/15 10:31:39;;;;;;;8.30;2.60;;;;;;;13.09;45.95;98786.56;234833;214;137821;-67
2023/10/15 10:36:52;;;;;;;5.30;1.60;;;;;;;13.14;46.14;98779.97;234726;214;147791;-66
2023/10/15 10:41:59;;;;;;;6.20;1.50;;;;;;;13.20;45.56;98776.63;234732;214;139619;-66
2023/10/15 10:47:22;;;;;;;5.80;1.50;;;;;;;13.23;45.70;98772.86;234777;214;138001;-68
2023/10/15 11:42:55;;;;;;;6.20;1.80;;;;;;;13.22;42.54;98752.78;232797;224;723646;-67
2023/10/15 11:47:58;;;;;;;4.50;1.50;;;;;;;13.21;42.32;98737.51;234322;219;136324;-66
2023/10/15 11:53:03;;;;;;;4.70;1.50;;;;;;;13.27;42.06;98736.96;233850;218;144905;-66
2023/10/15 11:58:10;;;;;;;6.40;1.60;;;;;;;13.28;41.99;98732.05;234138;218;138871;-72
2023/10/15 12:03:18;;;;;;;6.80;1.80;;;;;;;13.25;41.94;98736.56;234309;216;136253;-72
2023/10/15 12:08:24;;;;;;;5.30;1.80;;;;;;;13.29;41.69;98741.39;234208;216;143989;-68
2023/10/15 12:13:27;;;;;;;4.40;1.70;;;;;;;13.31;41.65;98746.63;234245;216;138830;-67
2023/10/15 12:18:30;;;;;;;5.30;1.30;;;;;;;13.33;41.58;98752.70;234058;215;136325;-65
2023/10/15 12:23:34;;;;;;;8.90;5.30;;;;;;;13.30;41.95;98751.87;234054;216;148643;-65
2023/10/15 12:28:44;;;;;;;6.70;2.00;;;;;;;13.35;42.38;98750.40;234203;216;141577;-65
2023/10/15 12:33:47;;;;;;;5.50;1.80;;;;;;;13.35;42.17;98750.41;234056;209;136733;-65
2023/10/15 12:38:51;;;;;;;5.20;1.90;;;;;;;13.39;42.44;98763.45;234105;216;145781;-63
2023/10/15 12:43:58;;;;;;;6.40;2.70;;;;;;;13.41;42.79;98759.55;234264;214;139405;-64
2023/10/15 12:49:03;;;;;;;4.80;1.60;;;;;;;13.44;42.91;98745.56;234331;214;137820;-66
2023/10/15 12:54:06;;;;;;;5.50;1.60;;;;;;;13.47;43.37;98760.63;234311;214;146226;-66
2023/10/15 12:59:10;;;;;;;6.40;1.70;;;;;;;13.46;43.26;98789.22;234510;212;140533;-63
2023/10/15 13:04:13;;;;;;;4.20;1.60;;;;;;;13.43;43.36;98780.59;234366;214;136711;-64
2023/10/15 13:09:25;;;;;;;38.90;30.80;;;;;;;13.44;43.97;98791.16;234471;214;145845;-67
2023/10/15 13:14:29;;;;;;;10.20;4.60;;;;;;;13.49;45.17;98783.34;234456;214;139570;-65
2023/10/15 13:19:32;;;;;;;5.90;2.30;;;;;;;13.51;44.64;98777.44;234196;214;137052;-68
2023/10/15 13:24:35;;;;;;;5.30;1.70;;;;;;;13.46;44.58;98759.31;234516;215;145439;-66
2023/10/15 13:29:38;;;;;;;7.50;1.70;;;;;;;13.45;44.59;98741.59;234666;215;140705;-69
2023/10/15 13:34:42;;;;;;;5.90;1.90;;;;;;;13.46;44.36;98719.71;234708;215;136634;-66
2023/10/15 13:39:47;;;;;;;6.60;2.20;;;;;;;13.49;43.86;98728.03;234490;215;146555;-65
2023/10/15 13:44:50;;;;;;;6.90;1.80;;;;;;;13.49;42.43;98739.43;234390;215;140522;-67
2023/10/15 13:49:54;;;;;;;7.50;1.80;;;;;;;13.47;42.65;98754.20;234416;215;137850;-64
2023/10/15 13:54:57;;;;;;;8.40;1.70;;;;;;;13.47;42.52;98747.66;234333;213;146500;-65
2023/10/15 14:00:01;;;;;;;4.50;1.50;;;;;;;13.48;42.50;98733.27;234501;215;139645;-66
2023/10/15 14:05:08;;;;;;;8.10;3.00;;;;;;;13.57;42.35;98727.81;234574;215;136479;-69
2023/10/15 14:10:15;;;;;;;5.20;1.60;;;;;;;13.53;41.69;98727.20;234399;215;147448;-65
2023/10/15 14:15:18;;;;;;;5.50;1.70;;;;;;;13.45;41.90;98743.17;234364;215;139321;-66
2023/10/15 14:20:22;;;;;;;6.50;1.90;;;;;;;13.42;42.04;98748.95;234385;215;137023;-66
2023/10/15 14:25:25;;;;;;;152.50;96.00;;;;;;;13.46;42.95;98737.04;234581;215;147331;-68
2023/10/15 14:30:28;;;;;;;11.20;3.60;;;;;;;13.57;43.03;98716.60;234490;215;138810;-69
2023/10/15 14:35:34;;;;;;;5.50;2.00;;;;;;;13.59;42.79;98720.02;234289;215;137656;-67
2023/10/15 14:40:38;;;;;;;6.20;3.70;;;;;;;13.59;43.41;98720.19;234549;215;147417;-66
2023/10/15 14:45:43;;;;;;;6.90;2.70;;;;;;;14.20;53.25;98713.80;234257;215;142534;-64
2023/10/15 14:50:46;;;;;;;8.10;1.90;;;;;;;14.81;49.26;98710.67;234337;214;137957;-64
2023/10/15 14:55:50;;;;;;;8.10;1.70;;;;;;;14.86;45.31;98717.78;234275;215;146328;-64
2023/10/15 15:00:53;;;;;;;5.00;1.60;;;;;;;14.81;44.01;98721.39;234540;215;139826;-65
2023/10/15 15:05:56;;;;;;;5.40;1.40;;;;;;;14.71;43.12;98721.36;234459;215;137419;-63
2023/10/15 15:10:59;;;;;;;6.90;1.70;;;;;;;14.63;41.70;98727.75;234426;214;145957;-70
2023/10/15 15:16:03;;;;;;;4.60;1.40;;;;;;;14.16;40.38;98731.58;234572;214;142438;-65
2023/10/15 15:21:06;;;;;;;4.00;1.60;;;;;;;13.76;41.29;98727.14;234314;215;136817;-70
2023/10/15 15:26:09;;;;;;;8.40;2.50;;;;;;;13.76;43.81;98736.41;234435;215;145633;-64
2023/10/15 15:31:13;;;;;;;6.90;1.80;;;;;;;13.88;43.73;98732.09;234374;215;139381;-65
2023/10/15 15:36:16;;;;;;;8.00;2.60;;;;;;;13.98;44.61;98733.58;234522;214;136963;-67
2023/10/15 15:41:19;;;;;;;6.30;1.90;;;;;;;14.11;44.60;98736.44;234238;215;145504;-65
2023/10/15 15:46:23;;;;;;;5.90;1.60;;;;;;;14.06;44.25;98741.66;234198;215;140889;-66
2023/10/15 15:51:26;;;;;;;5.40;1.60;;;;;;;14.00;43.50;98743.95;234060;215;137460;-65
2023/10/15 15:56:29;;;;;;;6.70;1.90;;;;;;;13.79;42.25;98752.08;234207;215;146195;-66
2023/10/15 16:01:32;;;;;;;7.20;2.00;;;;;;;13.34;42.28;98755.45;234182;208;138652;-67
2023/10/15 16:06:48;;;;;;;;;;;;;;;13.01;42.61;98758.84;234225;215;137097;-63
2023/10/15 16:11:52;;;;;;;5.20;1.70;;;;;;;12.75;43.04;98759.38;234252;215;146926;-65
2023/10/15 16:16:55;;;;;;;5.00;1.90;;;;;;;12.54;43.34;98763.46;234251;215;138959;-62
2023/10/15 16:21:59;;;;;;;7.50;2.00;;;;;;;12.42;43.60;98769.50;234141;215;137184;-67
2023/10/15 16:27:02;;;;;;;53.40;35.30;;;;;;;12.31;43.92;98778.36;234227;215;146998;-62
2023/10/15 16:32:05;;;;;;;9.40;4.70;;;;;;;12.26;44.51;98784.23;234144;214;139739;-62
2023/10/15 16:37:08;;;;;;;5.40;2.30;;;;;;;12.17;44.59;98794.35;234238;215;138888;-62
2023/10/15 16:42:11;;;;;;;7.50;2.30;;;;;;;12.08;44.92;98802.80;234267;215;145647;-65
2023/10/15 16:47:15;;;;;;;11.30;5.30;;;;;;;12.00;45.72;98805.46;234396;215;138816;-64
2023/10/15 16:52:18;;;;;;;10.00;2.80;;;;;;;12.00;45.78;98810.46;234135;215;138704;-64
2023/10/15 16:57:21;;;;;;;4.60;2.10;;;;;;;11.88;46.24;98816.98;234194;215;146510;-67
2023/10/15 17:02:25;;;;;;;8.00;2.10;;;;;;;11.78;46.55;98823.73;234243;215;138816;-64
2023/10/15 17:07:31;;;;;;;8.00;2.70;;;;;;;11.68;46.94;98830.66;234175;215;137452;-61
2023/10/15 17:12:34;;;;;;;8.50;3.60;;;;;;;11.59;47.26;98834.61;234242;215;146444;-61
2023/10/15 17:17:42;;;;;;;7.80;2.70;;;;;;;11.51;47.67;98827.91;234159;215;138871;-65
2023/10/15 17:22:47;;;;;;;35.40;23.10;;;;;;;11.43;48.71;98828.16;234227;216;136582;-63
2023/10/15 17:27:50;;;;;;;20.30;11.00;;;;;;;11.45;49.68;98829.71;234224;215;147019;-65
2023/10/15 17:32:54;;;;;;;11.10;3.40;;;;;;;11.49;50.59;98829.86;234024;215;139192;-60
2023/10/15 17:37:58;;;;;;;14.30;3.30;;;;;;;11.33;49.48;98836.26;234061;215;137135;-62
2023/10/15 17:43:01;;;;;;;10.40;3.40;;;;;;;11.24;49.34;98846.66;234030;215;146966;-63
2023/10/15 17:48:05;;;;;;;8.40;3.10;;;;;;;11.15;49.52;98842.82;234225;215;139471;-63
2023/10/15 17:53:09;;;;;;;12.10;3.60;;;;;;;11.09;49.70;98852.45;234267;215;137915;-62
2023/10/15 17:58:13;;;;;;;11.80;3.50;;;;;;;11.23;51.56;98853.98;234170;215;147533;-65
2023/10/15 18:03:16;;;;;;;8.10;3.40;;;;;;;11.34;50.00;98861.62;234117;215;138709;-65
2023/10/15 18:08:20;;;;;;;11.10;3.40;;;;;;;11.25;49.95;98866.48;234183;213;137798;-62
2023/10/15 18:13:23;;;;;;;8.80;3.60;;;;;;;11.18;50.03;98875.31;234112;215;146039;-60
2023/10/15 18:18:27;;;;;;;15.50;7.40;;;;;;;11.10;50.32;98874.04;234101;215;139463;-63
2023/10/15 18:23:30;;;;;;;9.80;4.00;;;;;;;11.10;50.31;98885.23;234274;215;137795;-64
2023/10/15 18:28:34;;;;;;;12.30;4.40;;;;;;;11.03;50.62;98884.06;234371;215;146730;-60
2023/10/15 18:33:37;;;;;;;9.40;3.60;;;;;;;11.05;51.05;98892.88;234225;215;139010;-64
2023/10/15 18:38:41;;;;;;;8.10;3.40;;;;;;;11.07;51.61;98896.42;234238;215;137396;-64
2023/10/15 18:43:44;;;;;;;9.60;3.60;;;;;;;11.02;52.13;98899.57;234164;215;145650;-65
2023/10/15 18:48:47;;;;;;;7.70;3.00;;;;;;;11.00;52.55;98902.08;234224;215;139358;-64
2023/10/15 18:53:54;;;;;;;9.00;3.60;;;;;;;10.98;53.07;98910.89;234168;215;137213;-65
2023/10/15 18:59:02;;;;;;;7.60;3.00;;;;;;;10.94;53.51;98916.10;234375;215;145528;-63
2023/10/15 19:04:06;;;;;;;6.40;2.60;;;;;;;10.92;53.83;98925.29;234242;215;139700;-61
2023/10/15 19:09:09;;;;;;;5.90;2.60;;;;;;;10.89;54.10;98934.73;234230;213;137489;-62
2023/10/15 19:14:12;;;;;;;5.60;2.80;;;;;;;10.86;54.40;98947.55;234244;215;146328;-63
2023/10/15 19:19:17;;;;;;;9.00;3.20;;;;;;;10.80;54.55;98953.91;234293;215;140565;-62
2023/10/15 19:24:20;;;;;;;6.70;2.60;;;;;;;10.76;54.86;98959.30;234222;213;137237;-62
2023/10/15 19:29:24;;;;;;;6.70;2.90;;;;;;;10.80;55.04;98969.73;234328;215;145955;-62
2023/10/15 19:34:36;;;;;;;7.00;3.20;;;;;;;10.80;55.22;98970.63;234282;215;140110;-62
2023/10/15 19:39:39;;;;;;;11.70;4.60;;;;;;;10.76;55.44;98975.30;234197;212;136850;-61
2023/10/15 19:44:45;;;;;;;10.60;4.10;;;;;;;10.72;55.67;98974.14;234158;215;146869;-62
2023/10/15 19:49:49;;;;;;;9.30;3.60;;;;;;;10.68;55.77;98972.13;234317;215;141473;-63
2023/10/15 19:54:53;;;;;;;8.30;4.00;;;;;;;10.62;55.97;98977.05;234253;215;137865;-61
2023/10/15 19:59:58;;;;;;;7.40;3.80;;;;;;;10.62;55.90;98981.54;234256;215;145526;-63
2023/10/15 20:05:01;;;;;;;8.50;3.70;;;;;;;10.59;55.64;98975.16;234457;215;139267;-63
2023/10/15 20:10:06;;;;;;;9.40;3.50;;;;;;;10.50;55.61;98981.02;234193;215;136910;-61
2023/10/15 20:15:11;;;;;;;10.70;4.90;;;;;;;10.45;55.65;98981.18;234272;215;148185;-61
2023/10/15 20:20:14;;;;;;;;;;;;;;;10.40;55.79;98988.36;234244;215;140456;-60
2023/10/15 20:25:22;;;;;;;6.70;3.00;;;;;;;10.33;56.05;98993.97;234249;215;133246;-64
2023/10/15 20:30:26;;;;;;;6.20;3.10;;;;;;;10.27;56.22;99003.91;234193;215;147553;-64
2023/10/15 20:35:29;;;;;;;9.00;3.40;;;;;;;10.20;56.48;99006.79;234331;215;139676;-62
2023/10/15 20:40:33;;;;;;;9.00;3.30;;;;;;;10.17;56.70;99011.94;234241;215;136743;-61
2023/10/15 20:45:36;;;;;;;9.10;3.20;;;;;;;10.11;56.82;99013.87;234292;215;147683;-64
2023/10/15 20:50:40;;;;;;;9.90;3.50;;;;;;;10.10;57.05;99011.10;234241;215;138695;-62
2023/10/15 20:55:43;;;;;;;9.10;3.00;;;;;;;10.07;57.25;99011.29;234275;215;136965;-60
2023/10/15 21:00:46;;;;;;;6.70;2.60;;;;;;;10.02;57.37;99015.54;234269;215;147562;-62
2023/10/15 21:05:49;;;;;;;7.80;2.40;;;;;;;9.94;57.66;99014.53;234297;215;138591;-61
2023/10/15 21:10:53;;;;;;;6.60;3.60;;;;;;;9.93;57.77;99026.88;234326;215;137283;-61
2023/10/15 21:15:56;;;;;;;5.80;2.50;;;;;;;9.90;57.98;99028.09;234168;215;148757;-60
2023/10/15 21:20:59;;;;;;;6.70;2.80;;;;;;;9.82;58.15;99032.14;234217;215;138888;-64
2023/10/15 21:26:03;;;;;;;12.10;6.60;;;;;;;9.77;58.46;99038.30;234243;215;138984;-65
2023/10/15 21:31:06;;;;;;;7.10;2.90;;;;;;;9.66;58.72;99044.02;234267;215;148983;-61
2023/10/15 21:36:09;;;;;;;7.80;3.30;;;;;;;9.55;59.15;99041.50;234248;215;140298;-63
2023/10/15 21:41:12;;;;;;;9.40;3.00;;;;;;;9.48;59.33;99045.43;234364;215;137591;-65
2023/10/15 21:46:18;;;;;;;6.60;2.60;;;;;;;9.44;59.67;99054.33;234273;215;147898;-64
2023/10/15 21:51:21;;;;;;;8.70;3.20;;;;;;;9.43;59.75;99055.44;234166;215;139757;-62
2023/10/15 21:56:25;;;;;;;6.90;2.90;;;;;;;9.45;59.80;99050.39;234138;215;136251;-62
2023/10/15 22:01:28;;;;;;;8.30;2.80;;;;;;;9.42;59.84;99053.38;234228;215;148055;-64
2023/10/15 22:06:31;;;;;;;9.00;3.70;;;;;;;9.42;59.96;99051.10;234158;215;141688;-62
2023/10/15 22:11:35;;;;;;;6.50;3.50;;;;;;;9.38;60.02;99056.09;234188;215;136483;-64
2023/10/15 22:16:38;;;;;;;7.70;3.70;;;;;;;9.37;60.20;99056.15;234358;215;147521;-64
2023/10/15 22:21:44;;;;;;;8.20;3.20;;;;;;;9.37;60.37;99063.98;234088;215;138912;-62
2023/10/15 22:26:51;;;;;;;8.40;3.60;;;;;;;9.39;60.45;99064.94;234167;215;137348;-64
2023/10/15 22:31:55;;;;;;;9.80;3.60;;;;;;;9.37;60.69;99071.23;234209;215;147570;-65
2023/10/15 22:36:58;;;;;;;8.70;3.90;;;;;;;9.36;60.80;99071.82;234180;215;139508;-65
2023/10/15 22:42:06;;;;;;;10.60;3.50;;;;;;;9.38;60.98;99069.23;233999;215;137349;-65
2023/10/15 22:47:10;;;;;;;9.50;3.70;;;;;;;9.42;61.02;99073.42;234375;215;147701;-62
2023/10/15 22:52:15;;;;;;;11.20;3.30;;;;;;;9.41;60.97;99079.48;234139;215;138706;-62
2023/10/15 22:57:19;;;;;;;9.70;3.60;;;;;;;9.42;60.89;99078.86;234252;215;137490;-63
2023/10/15 23:02:22;;;;;;;6.90;3.10;;;;;;;9.41;60.98;99083.41;234285;215;149498;-63
2023/10/15 23:07:26;;;;;;;7.50;3.70;;;;;;;9.37;61.07;99091.38;234142;215;156181;-65
2023/10/15 23:12:29;;;;;;;6.70;3.20;;;;;;;9.32;61.13;99104.77;234195;215;136802;-65
2023/10/15 23:17:33;;;;;;;8.00;3.50;;;;;;;9.29;61.53;99114.18;234246;214;148830;-62
2023/10/15 23:22:37;;;;;;;10.80;5.00;;;;;;;9.22;61.66;99120.04;234366;215;139510;-64
2023/10/15 23:27:41;;;;;;;8.80;4.40;;;;;;;9.16;61.69;99122.65;234196;215;137065;-64
2023/10/15 23:32:49;;;;;;;7.20;3.40;;;;;;;9.15;61.80;99133.00;234319;215;149963;-62
2023/10/15 23:37:53;;;;;;;7.80;3.50;;;;;;;9.09;62.06;99137.17;234487;215;138647;-63
2023/10/15 23:42:56;;;;;;;7.00;3.20;;;;;;;9.07;62.14;99140.52;234370;215;137353;-60
2023/10/15 23:53:30;;;;;;;7.00;3.10;;;;;;;8.98;62.35;99133.52;234443;215;140820;-60
2023/10/15 23:59:23;;;;;;;8.20;3.60;;;;;;;9.04;62.43;99142.95;232622;224;724029;-63
